Time;durP1;ratioP1;P1;durP2;ratioP2;P2;SDS_P1;SDS_P2;PMS_P1;PMS_P2;Temp;Humidity;BMP_temperature;BMP_pressure;BME280_temperature;BME280_humidity;BME280_pressure;Samples;Min_cycle;Max_cycle;Signal;HPM_P1;HPM_P2
2022/08/26 00:00:47;;;;;;;;;3.33;3.33;;;;;;;;5115585;27;45365;-67
2022/08/26 00:03:13;;;;;;;;;4.00;3.00;;;;;;;;5114638;27;45391;-67
2022/08/26 00:05:38;;;;;;;;;3.00;3.00;;;;;;;;5117015;27;45384;-67
2022/08/26 00:08:04;;;;;;;;;4.67;4.67;;;;;;;;5117345;27;45478;-67
2022/08/26 00:10:30;;;;;;;;;3.33;3.33;;;;;;;;5118146;27;45427;-67
2022/08/26 00:12:55;;;;;;;;;5.33;4.00;;;;;;;;5120290;27;45308;-67
2022/08/26 00:15:21;;;;;;;;;2.67;2.67;;;;;;;;5118283;27;45714;-65
2022/08/26 00:17:47;;;;;;;;;3.00;3.00;;;;;;;;5124533;27;45313;-67
2022/08/26 00:20:13;;;;;;;;;5.00;3.33;;;;;;;;5117653;27;46170;-67
2022/08/26 00:22:39;;;;;;;;;5.33;5.33;;;;;;;;5108018;27;45296;-67
2022/08/26 00:25:05;;;;;;;;;5.33;3.67;;;;;;;;5110723;27;45370;-67
2022/08/26 00:27:32;;;;;;;;;6.00;6.00;;;;;;;;5114205;27;45298;-67
2022/08/26 00:29:59;;;;;;;;;5.00;3.67;;;;;;;;5112685;27;45473;-67
2022/08/26 00:32:24;;;;;;;;;1.00;1.00;;;;;;;;5116830;27;45332;-66
2022/08/26 00:34:49;;;;;;;;;3.67;3.67;;;;;;;;5112176;27;45386;-67
2022/08/26 00:37:15;;;;;;;;;5.33;5.33;;;;;;;;5117850;27;45464;-66
2022/08/26 00:39:40;;;;;;;;;3.00;3.00;;;;;;;;5113943;27;46093;-67
2022/08/26 00:42:05;;;;;;;;;4.00;4.00;;;;;;;;5119306;27;45376;-67
2022/08/26 00:44:30;;;;;;;;;6.00;4.33;;;;;;;;5115604;27;45285;-67
2022/08/26 00:46:58;;;;;;;;;7.00;6.00;;;;;;;;5120835;27;45266;-67
2022/08/26 00:49:33;;;;;;;;;4.00;4.00;;;;;;;;5116943;27;46115;-67
2022/08/26 00:52:00;;;;;;;;;4.00;4.00;;;;;;;;5123790;27;45328;-67
2022/08/26 00:54:28;;;;;;;;;4.33;4.33;;;;;;;;5113498;27;45337;-67
2022/08/26 00:56:56;;;;;;;;;4.33;4.33;;;;;;;;5115484;27;45394;-67
2022/08/26 00:59:22;;;;;;;;;5.67;5.33;;;;;;;;5110608;27;45505;-67
2022/08/26 01:01:47;;;;;;;;;5.33;5.33;;;;;;;;5115914;27;45170;-67
2022/08/26 01:04:14;;;;;;;;;8.00;7.00;;;;;;;;5111312;27;45312;-67
2022/08/26 01:06:40;;;;;;;;;4.00;4.00;;;;;;;;5120226;27;45519;-67
2022/08/26 01:09:06;;;;;;;;;6.00;5.00;;;;;;;;5111855;27;46535;-66
2022/08/26 01:11:32;;;;;;;;;4.33;4.00;;;;;;;;5123300;27;45226;-66
2022/08/26 01:13:59;;;;;;;;;5.00;4.00;;;;;;;;5114128;27;45441;-66
2022/08/26 01:16:24;;;;;;;;;4.67;4.67;;;;;;;;5123983;27;45387;-66
2022/08/26 01:18:51;;;;;;;;;5.00;5.00;;;;;;;;5118596;27;46198;-66
2022/08/26 01:21:16;;;;;;;;;5.67;5.67;;;;;;;;5103480;27;45274;-66
2022/08/26 01:23:45;;;;;;;;;6.67;4.00;;;;;;;;5108572;27;45346;-66
2022/08/26 01:26:21;;;;;;;;;3.67;3.00;;;;;;;;5121696;27;45356;-66
2022/08/26 01:28:49;;;;;;;;;6.67;6.67;;;;;;;;5118110;27;45391;-66
2022/08/26 01:31:16;;;;;;;;;6.00;5.33;;;;;;;;5111754;27;45571;-66
2022/08/26 01:33:41;;;;;;;;;6.67;6.67;;;;;;;;5114107;27;45532;-66
2022/08/26 01:36:06;;;;;;;;;6.67;6.67;;;;;;;;5113597;27;45456;-67
2022/08/26 01:38:32;;;;;;;;;6.00;5.00;;;;;;;;5114546;27;45588;-66
2022/08/26 01:40:58;;;;;;;;;8.00;8.00;;;;;;;;5116279;27;45274;-67
2022/08/26 01:43:26;;;;;;;;;6.00;6.00;;;;;;;;5115392;27;45354;-66
2022/08/26 01:45:53;;;;;;;;;6.33;4.33;;;;;;;;5116647;27;45431;-66
2022/08/26 01:48:21;;;;;;;;;9.33;6.00;;;;;;;;5116738;27;46098;-66
2022/08/26 01:50:47;;;;;;;;;8.33;8.33;;;;;;;;5117802;27;45257;-66
2022/08/26 01:53:15;;;;;;;;;10.67;10.33;;;;;;;;5120555;27;45355;-66
2022/08/26 01:55:41;;;;;;;;;6.67;6.67;;;;;;;;5116021;27;45308;-66
2022/08/26 01:58:10;;;;;;;;;7.00;7.00;;;;;;;;5109618;27;45537;-66
2022/08/26 02:00:35;;;;;;;;;8.67;8.67;;;;;;;;5116041;27;45345;-67
2022/08/26 02:03:16;;;;;;;;;3.33;3.33;;;;;;;;5112533;27;45566;-66
2022/08/26 02:05:43;;;;;;;;;10.00;10.00;;;;;;;;5119504;27;45497;-66
2022/08/26 02:08:08;;;;;;;;;8.00;8.00;;;;;;;;5112611;27;45313;-67
2022/08/26 02:10:34;;;;;;;;;11.67;11.33;;;;;;;;5117335;27;45146;-66
2022/08/26 02:12:59;;;;;;;;;9.00;9.00;;;;;;;;5116029;27;45225;-66
2022/08/26 02:15:24;;;;;;;;;10.33;10.33;;;;;;;;5121182;27;45462;-66
2022/08/26 02:17:50;;;;;;;;;14.67;13.00;;;;;;;;5120797;27;46863;-66
2022/08/26 02:20:17;;;;;;;;;13.33;9.00;;;;;;;;5115780;27;45457;-67
2022/08/26 02:22:43;;;;;;;;;13.00;9.33;;;;;;;;5104739;27;45467;-66
2022/08/26 02:25:12;;;;;;;;;9.00;8.00;;;;;;;;5117471;27;45555;-66
2022/08/26 02:27:38;;;;;;;;;13.00;13.00;;;;;;;;5108876;27;47180;-66
2022/08/26 02:30:08;;;;;;;;;18.67;13.33;;;;;;;;5111379;27;45408;-66
2022/08/26 02:32:33;;;;;;;;;10.33;8.00;;;;;;;;5116729;27;45227;-66
2022/08/26 02:34:58;;;;;;;;;13.67;13.67;;;;;;;;5122122;27;45311;-66
2022/08/26 02:37:26;;;;;;;;;14.67;13.33;;;;;;;;5119650;27;45585;-66
2022/08/26 02:39:51;;;;;;;;;15.33;15.33;;;;;;;;5110329;27;45409;-67
2022/08/26 02:42:17;;;;;;;;;13.25;11.50;;;;;;;;5118414;27;45107;-67
2022/08/26 02:44:42;;;;;;;;;14.00;13.33;;;;;;;;5109581;27;45348;-67
2022/08/26 02:47:07;;;;;;;;;17.33;14.00;;;;;;;;5110023;27;46052;-67
2022/08/26 02:49:33;;;;;;;;;11.00;10.67;;;;;;;;5114334;27;45490;-67
2022/08/26 02:51:59;;;;;;;;;14.00;13.33;;;;;;;;5114848;27;45467;-67
2022/08/26 02:54:24;;;;;;;;;16.00;12.67;;;;;;;;5110249;27;45416;-67
2022/08/26 02:56:50;;;;;;;;;18.67;12.33;;;;;;;;5117501;27;45359;-67
2022/08/26 02:59:15;;;;;;;;;15.33;14.33;;;;;;;;5111056;27;45502;-67
2022/08/26 03:01:41;;;;;;;;;14.67;14.67;;;;;;;;5123043;27;45224;-67
2022/08/26 03:04:08;;;;;;;;;20.67;17.00;;;;;;;;5117008;27;45640;-67
2022/08/26 03:06:34;;;;;;;;;23.33;17.67;;;;;;;;5126398;27;45378;-67
2022/08/26 03:08:59;;;;;;;;;13.00;13.00;;;;;;;;5119285;27;45391;-67
2022/08/26 03:11:24;;;;;;;;;22.67;19.00;;;;;;;;5116155;27;45351;-67
2022/08/26 03:13:50;;;;;;;;;18.00;16.67;;;;;;;;5110498;27;45623;-67
2022/08/26 03:16:15;;;;;;;;;23.00;18.75;;;;;;;;5125131;27;47073;-67
2022/08/26 03:18:40;;;;;;;;;24.50;23.00;;;;;;;;5119848;27;45291;-67
2022/08/26 03:21:06;;;;;;;;;21.00;16.00;;;;;;;;5116543;27;45878;-68
2022/08/26 03:23:32;;;;;;;;;22.00;19.50;;;;;;;;5113243;27;45310;-67
2022/08/26 03:25:57;;;;;;;;;18.33;16.33;;;;;;;;5118633;27;45388;-67
2022/08/26 03:28:23;;;;;;;;;19.33;15.00;;;;;;;;5115927;27;45399;-67
2022/08/26 03:30:48;;;;;;;;;24.67;20.33;;;;;;;;5118754;27;45495;-66
2022/08/26 03:33:13;;;;;;;;;18.67;16.67;;;;;;;;5117549;27;45479;-66
2022/08/26 03:35:40;;;;;;;;;23.75;18.75;;;;;;;;5118212;27;46125;-66
2022/08/26 03:38:07;;;;;;;;;19.00;19.00;;;;;;;;5120549;27;45315;-66
2022/08/26 03:40:33;;;;;;;;;20.33;19.33;;;;;;;;5123760;27;45482;-66
2022/08/26 03:42:59;;;;;;;;;19.67;16.67;;;;;;;;5125734;27;45522;-66
2022/08/26 03:45:24;;;;;;;;;24.33;15.33;;;;;;;;5118583;27;46256;-66
2022/08/26 03:47:50;;;;;;;;;20.75;18.50;;;;;;;;5118981;27;45406;-66
2022/08/26 03:50:16;;;;;;;;;15.67;15.67;;;;;;;;5116564;27;45511;-66
2022/08/26 03:52:42;;;;;;;;;21.00;19.67;;;;;;;;5124061;27;45417;-66
2022/08/26 03:55:08;;;;;;;;;26.75;24.75;;;;;;;;5116936;27;45452;-66
2022/08/26 03:57:33;;;;;;;;;21.75;18.75;;;;;;;;5124606;27;45344;-66
2022/08/26 03:59:58;;;;;;;;;19.67;19.00;;;;;;;;5113933;27;45409;-66
2022/08/26 04:02:24;;;;;;;;;16.00;16.00;;;;;;;;5115590;27;45430;-67
2022/08/26 04:04:49;;;;;;;;;23.67;21.33;;;;;;;;5119378;27;46600;-66
2022/08/26 04:07:14;;;;;;;;;16.33;14.00;;;;;;;;5115742;27;45514;-67
2022/08/26 04:09:40;;;;;;;;;21.33;17.00;;;;;;;;5118982;27;45415;-66
2022/08/26 04:12:05;;;;;;;;;25.33;22.33;;;;;;;;5123072;27;45592;-66
2022/08/26 04:14:31;;;;;;;;;25.75;22.25;;;;;;;;5119077;27;45636;-66
2022/08/26 04:16:56;;;;;;;;;24.75;21.25;;;;;;;;5113396;27;45341;-67
2022/08/26 04:19:22;;;;;;;;;24.75;20.00;;;;;;;;5115941;27;45329;-67
2022/08/26 04:21:51;;;;;;;;;27.25;25.50;;;;;;;;5123105;27;45372;-65
2022/08/26 04:24:16;;;;;;;;;22.67;20.67;;;;;;;;5119919;27;45375;-66
2022/08/26 04:26:42;;;;;;;;;27.33;20.33;;;;;;;;5124958;27;45275;-66
2022/08/26 04:29:10;;;;;;;;;19.67;16.33;;;;;;;;5122445;27;45417;-66
2022/08/26 04:31:35;;;;;;;;;23.25;21.50;;;;;;;;5124671;27;45432;-65
2022/08/26 04:34:01;;;;;;;;;23.00;18.25;;;;;;;;5121376;27;47159;-66
2022/08/26 04:36:27;;;;;;;;;21.67;19.33;;;;;;;;5106504;27;45375;-66
2022/08/26 04:38:52;;;;;;;;;22.75;22.50;;;;;;;;5110781;27;45438;-66
2022/08/26 04:41:18;;;;;;;;;26.50;22.75;;;;;;;;5124247;27;45381;-66
2022/08/26 04:43:44;;;;;;;;;23.75;22.00;;;;;;;;5113247;27;46233;-66
2022/08/26 04:46:10;;;;;;;;;26.25;24.00;;;;;;;;5118759;27;45220;-66
2022/08/26 04:48:36;;;;;;;;;23.50;23.50;;;;;;;;5114497;27;45303;-66
2022/08/26 04:51:01;;;;;;;;;21.33;21.00;;;;;;;;5121028;27;45792;-66
2022/08/26 04:53:27;;;;;;;;;24.00;22.33;;;;;;;;5120640;27;47179;-66
2022/08/26 04:55:52;;;;;;;;;23.67;21.67;;;;;;;;5118564;27;45408;-66
2022/08/26 04:58:18;;;;;;;;;26.25;21.75;;;;;;;;5111878;27;45667;-66
2022/08/26 05:00:44;;;;;;;;;21.00;18.50;;;;;;;;5120734;27;45412;-66
2022/08/26 05:03:09;;;;;;;;;21.50;21.50;;;;;;;;5119847;27;45444;-67
2022/08/26 05:05:36;;;;;;;;;29.50;26.75;;;;;;;;5118727;27;45287;-66
2022/08/26 05:08:01;;;;;;;;;25.50;24.50;;;;;;;;5123337;27;45313;-66
2022/08/26 05:10:27;;;;;;;;;25.75;24.25;;;;;;;;5114043;27;45411;-66
2022/08/26 05:12:52;;;;;;;;;30.50;25.75;;;;;;;;5111211;27;46274;-66
2022/08/26 05:15:18;;;;;;;;;21.50;19.25;;;;;;;;5111095;27;45434;-66
2022/08/26 05:17:43;;;;;;;;;24.75;23.25;;;;;;;;5113339;27;45518;-66
2022/08/26 05:20:08;;;;;;;;;25.50;25.25;;;;;;;;5113009;27;45221;-66
2022/08/26 05:22:33;;;;;;;;;22.50;21.25;;;;;;;;5116749;27;45350;-66
2022/08/26 05:24:59;;;;;;;;;23.50;23.50;;;;;;;;5119385;27;45300;-66
2022/08/26 05:27:24;;;;;;;;;27.67;25.33;;;;;;;;5120224;27;45298;-66
2022/08/26 05:29:49;;;;;;;;;35.50;27.50;;;;;;;;5120695;27;45461;-65
2022/08/26 05:32:14;;;;;;;;;27.00;24.25;;;;;;;;5119387;27;46238;-65
2022/08/26 05:34:39;;;;;;;;;27.00;24.67;;;;;;;;5116445;27;45056;-65
2022/08/26 05:37:05;;;;;;;;;24.25;23.50;;;;;;;;5121243;27;45596;-65
2022/08/26 05:39:31;;;;;;;;;23.00;21.25;;;;;;;;5116531;27;45430;-66
2022/08/26 05:41:56;;;;;;;;;23.75;23.75;;;;;;;;5118006;27;46656;-66
2022/08/26 05:44:21;;;;;;;;;19.67;18.33;;;;;;;;5109563;27;45605;-66
2022/08/26 05:46:46;;;;;;;;;24.50;22.50;;;;;;;;5120751;27;45283;-66
2022/08/26 05:49:13;;;;;;;;;27.25;24.25;;;;;;;;5117550;27;45555;-66
2022/08/26 05:51:38;;;;;;;;;20.75;20.75;;;;;;;;5111275;27;45534;-66
2022/08/26 05:54:05;;;;;;;;;22.75;22.00;;;;;;;;5108122;27;45462;-66
2022/08/26 05:56:31;;;;;;;;;28.75;24.75;;;;;;;;5114982;27;45312;-66
2022/08/26 05:58:56;;;;;;;;;29.50;26.00;;;;;;;;5118151;27;45359;-65
2022/08/26 06:01:24;;;;;;;;;29.25;28.25;;;;;;;;5119775;27;45330;-66
2022/08/26 06:03:50;;;;;;;;;25.33;21.33;;;;;;;;5115320;27;45580;-66
2022/08/26 06:06:17;;;;;;;;;22.33;22.33;;;;;;;;5120237;27;45339;-64
2022/08/26 06:08:43;;;;;;;;;23.75;21.75;;;;;;;;5119171;27;45600;-65
2022/08/26 06:11:10;;;;;;;;;25.25;22.00;;;;;;;;5112377;27;46304;-65
2022/08/26 06:13:35;;;;;;;;;26.00;23.50;;;;;;;;5106583;27;45374;-65
2022/08/26 06:16:02;;;;;;;;;22.00;21.00;;;;;;;;5110705;27;45326;-65
2022/08/26 06:18:33;;;;;;;;;24.33;19.00;;;;;;;;5108856;27;45284;-65
2022/08/26 06:20:58;;;;;;;;;26.00;23.50;;;;;;;;5117652;27;45449;-65
2022/08/26 06:26:09;;;;;;;;;21.67;18.67;;;;;;;;5110691;27;45425;-65
2022/08/26 06:28:34;;;;;;;;;21.50;20.75;;;;;;;;5115003;27;45394;-65
2022/08/26 06:31:00;;;;;;;;;22.50;21.50;;;;;;;;5121836;27;48094;-66
2022/08/26 06:33:27;;;;;;;;;21.33;19.33;;;;;;;;5112436;27;45564;-65
2022/08/26 06:35:52;;;;;;;;;14.67;14.67;;;;;;;;5116802;27;45314;-65
2022/08/26 06:38:18;;;;;;;;;28.75;21.75;;;;;;;;5117848;27;45470;-65
2022/08/26 06:40:50;;;;;;;;;19.33;18.33;;;;;;;;5119463;27;45600;-65
2022/08/26 06:43:16;;;;;;;;;24.00;19.33;;;;;;;;5124165;27;45417;-66
2022/08/26 06:45:43;;;;;;;;;18.33;17.00;;;;;;;;5115682;27;45305;-66
2022/08/26 06:48:08;;;;;;;;;23.33;18.67;;;;;;;;5113147;27;45371;-66
2022/08/26 06:50:34;;;;;;;;;22.25;19.00;;;;;;;;5118160;27;45411;-65
2022/08/26 06:52:59;;;;;;;;;17.50;17.50;;;;;;;;5115393;27;45149;-65
2022/08/26 06:55:24;;;;;;;;;16.25;16.25;;;;;;;;5117330;27;45414;-65
2022/08/26 06:57:49;;;;;;;;;12.00;12.00;;;;;;;;5116846;27;45584;-65
2022/08/26 07:00:15;;;;;;;;;19.00;18.33;;;;;;;;5122238;27;45386;-66
2022/08/26 07:02:40;;;;;;;;;22.67;19.00;;;;;;;;5121082;27;45394;-65
2022/08/26 07:05:06;;;;;;;;;21.00;19.33;;;;;;;;5119177;27;45484;-65
2022/08/26 07:07:31;;;;;;;;;24.67;20.33;;;;;;;;5121081;27;45491;-65
2022/08/26 07:09:56;;;;;;;;;23.00;22.00;;;;;;;;5120176;27;46503;-66
2022/08/26 07:12:22;;;;;;;;;15.00;15.00;;;;;;;;5109375;27;45363;-65
2022/08/26 07:14:47;;;;;;;;;19.75;19.75;;;;;;;;5111024;27;45370;-65
2022/08/26 07:17:13;;;;;;;;;18.00;17.33;;;;;;;;5113302;27;45596;-65
2022/08/26 07:19:38;;;;;;;;;21.67;18.00;;;;;;;;5114916;27;46284;-65
2022/08/26 07:22:04;;;;;;;;;19.67;18.00;;;;;;;;5121047;27;45370;-66
2022/08/26 07:24:30;;;;;;;;;19.67;17.67;;;;;;;;5117787;27;45407;-66
2022/08/26 07:26:59;;;;;;;;;17.67;16.67;;;;;;;;5122378;27;45556;-66
2022/08/26 07:29:25;;;;;;;;;12.00;11.67;;;;;;;;5122201;27;48294;-66
2022/08/26 07:31:50;;;;;;;;;22.67;19.33;;;;;;;;5117825;27;45237;-66
2022/08/26 07:34:16;;;;;;;;;23.67;18.00;;;;;;;;5119126;27;45492;-66
2022/08/26 07:36:41;;;;;;;;;23.00;20.33;;;;;;;;5113943;27;45937;-65
2022/08/26 07:39:06;;;;;;;;;13.67;13.67;;;;;;;;5118811;27;45792;-66
2022/08/26 07:41:31;;;;;;;;;16.67;15.67;;;;;;;;5117467;27;45236;-66
2022/08/26 07:43:57;;;;;;;;;15.33;13.67;;;;;;;;5120588;27;45417;-65
2022/08/26 07:46:22;;;;;;;;;13.33;13.33;;;;;;;;5117755;27;45151;-66
2022/08/26 07:48:48;;;;;;;;;18.33;15.33;;;;;;;;5120933;27;46233;-66
2022/08/26 07:51:14;;;;;;;;;14.33;14.33;;;;;;;;5123049;27;45410;-66
2022/08/26 07:53:39;;;;;;;;;18.00;16.67;;;;;;;;5108746;27;45480;-64
2022/08/26 07:56:05;;;;;;;;;13.33;13.33;;;;;;;;5121613;27;45456;-64
2022/08/26 07:58:30;;;;;;;;;15.33;13.33;;;;;;;;5111261;27;45534;-65
2022/08/26 08:00:55;;;;;;;;;10.00;9.00;;;;;;;;5120059;27;45276;-65
2022/08/26 08:03:20;;;;;;;;;15.00;12.33;;;;;;;;5114719;27;45302;-65
2022/08/26 08:05:46;;;;;;;;;11.00;11.00;;;;;;;;5118834;27;45458;-65
2022/08/26 08:08:11;;;;;;;;;11.67;11.67;;;;;;;;5122312;27;47000;-65
2022/08/26 08:10:36;;;;;;;;;15.67;14.33;;;;;;;;5119630;27;45343;-64
2022/08/26 08:13:02;;;;;;;;;12.00;12.00;;;;;;;;5121277;27;45305;-65
2022/08/26 08:15:29;;;;;;;;;18.00;17.67;;;;;;;;5121869;27;45441;-66
2022/08/26 08:17:56;;;;;;;;;17.33;14.33;;;;;;;;5123526;27;45591;-66
2022/08/26 08:20:21;;;;;;;;;12.33;12.00;;;;;;;;5121344;27;45373;-67
2022/08/26 08:22:46;;;;;;;;;14.67;12.67;;;;;;;;5123910;27;45299;-66
2022/08/26 08:25:12;;;;;;;;;14.33;14.00;;;;;;;;5122466;27;45374;-66
2022/08/26 08:27:38;;;;;;;;;13.67;11.33;;;;;;;;5105764;27;45781;-66
2022/08/26 08:30:04;;;;;;;;;20.33;17.00;;;;;;;;5117238;27;45474;-66
2022/08/26 08:32:30;;;;;;;;;18.33;17.67;;;;;;;;5111117;27;45504;-66
2022/08/26 08:34:56;;;;;;;;;14.00;13.00;;;;;;;;5117656;27;45447;-66
2022/08/26 08:37:22;;;;;;;;;12.00;12.00;;;;;;;;5115545;27;45354;-66
2022/08/26 08:39:47;;;;;;;;;17.67;13.33;;;;;;;;5113356;27;45442;-65
2022/08/26 08:42:14;;;;;;;;;14.33;14.33;;;;;;;;5118851;27;45301;-65
2022/08/26 08:44:43;;;;;;;;;12.00;11.50;;;;;;;;5109039;27;45336;-66
2022/08/26 08:47:16;;;;;;;;;14.00;13.00;;;;;;;;5117318;27;46440;-66
2022/08/26 08:49:41;;;;;;;;;14.67;14.67;;;;;;;;5111815;27;45452;-66
2022/08/26 08:52:10;;;;;;;;;18.00;18.00;;;;;;;;5122579;27;45323;-65
2022/08/26 08:54:36;;;;;;;;;16.33;13.33;;;;;;;;5116591;27;45452;-65
2022/08/26 08:57:07;;;;;;;;;12.00;11.00;;;;;;;;5116439;27;45368;-65
2022/08/26 08:59:34;;;;;;;;;12.67;12.00;;;;;;;;5109964;27;45316;-65
2022/08/26 09:02:22;;;;;;;;;29.00;23.25;;;;;;;;5110192;27;45488;-65
2022/08/26 09:05:06;;;;;;;;;10.00;10.00;;;;;;;;5113326;27;45516;-65
2022/08/26 09:08:03;;;;;;;;;5.67;5.67;;;;;;;;5114193;27;46126;-65
2022/08/26 09:10:28;;;;;;;;;8.00;8.00;;;;;;;;5076489;27;45406;-66
2022/08/26 09:12:54;;;;;;;;;12.67;12.67;;;;;;;;5117339;27;45264;-66
2022/08/26 09:15:23;;;;;;;;;12.00;12.00;;;;;;;;5116968;27;45283;-66
2022/08/26 09:17:55;;;;;;;;;11.33;11.33;;;;;;;;5119463;27;46618;-67
2022/08/26 09:20:39;;;;;;;;;12.00;12.00;;;;;;;;5117957;27;45540;-66
2022/08/26 09:23:05;;;;;;;;;13.00;13.00;;;;;;;;5112165;27;45223;-66
2022/08/26 09:25:30;;;;;;;;;14.00;14.00;;;;;;;;5120252;27;45388;-66
2022/08/26 09:27:55;;;;;;;;;14.33;11.33;;;;;;;;5122127;27;46293;-66
2022/08/26 09:30:20;;;;;;;;;6.00;6.00;;;;;;;;5118974;27;45655;-66
2022/08/26 09:32:56;;;;;;;;;11.00;10.00;;;;;;;;5108986;27;45398;-67
2022/08/26 09:35:40;;;;;;;;;16.00;13.67;;;;;;;;5120116;27;45303;-66
2022/08/26 09:38:24;;;;;;;;;13.33;12.67;;;;;;;;5108540;27;45345;-66
2022/08/26 09:40:53;;;;;;;;;11.00;11.00;;;;;;;;5120799;27;45303;-64
2022/08/26 09:43:19;;;;;;;;;10.00;9.00;;;;;;;;5112506;27;45313;-65
2022/08/26 09:45:47;;;;;;;;;15.33;11.67;;;;;;;;5116802;27;45595;-65
2022/08/26 09:48:24;;;;;;;;;17.33;14.33;;;;;;;;5113873;27;45560;-65
2022/08/26 09:50:58;;;;;;;;;12.00;11.33;;;;;;;;5120127;27;45564;-65
2022/08/26 09:53:24;;;;;;;;;12.00;12.00;;;;;;;;5117367;27;45362;-65
2022/08/26 09:55:51;;;;;;;;;8.00;8.00;;;;;;;;5118208;27;45431;-65
2022/08/26 09:58:37;;;;;;;;;13.33;13.33;;;;;;;;5120996;27;46621;-64
2022/08/26 10:01:04;;;;;;;;;16.00;13.00;;;;;;;;5111019;27;45399;-66
2022/08/26 10:03:31;;;;;;;;;10.33;8.33;;;;;;;;5120284;27;45430;-65
2022/08/26 10:05:58;;;;;;;;;7.00;7.00;;;;;;;;5114066;27;45477;-65
2022/08/26 10:08:24;;;;;;;;;15.33;14.33;;;;;;;;5109283;27;46173;-66
2022/08/26 10:10:49;;;;;;;;;13.00;10.00;;;;;;;;5119327;27;45455;-66
2022/08/26 10:13:22;;;;;;;;;11.00;10.00;;;;;;;;5117098;27;45287;-66
2022/08/26 10:16:07;;;;;;;;;10.00;10.00;;;;;;;;5121891;27;45505;-66
2022/08/26 10:18:35;;;;;;;;;9.67;8.33;;;;;;;;5116972;27;46235;-66
2022/08/26 10:21:17;;;;;;;;;14.00;13.00;;;;;;;;5123387;27;45387;-66
2022/08/26 10:23:44;;;;;;;;;12.67;12.67;;;;;;;;5118376;27;45373;-66
2022/08/26 10:26:10;;;;;;;;;13.67;10.67;;;;;;;;5125254;27;45401;-66
2022/08/26 10:28:45;;;;;;;;;9.50;8.50;;;;;;;;5121708;27;46834;-66
2022/08/26 10:31:29;;;;;;;;;10.33;10.33;;;;;;;;5121151;27;45303;-67
2022/08/26 10:33:55;;;;;;;;;9.67;9.33;;;;;;;;5111331;27;45203;-67
2022/08/26 10:39:09;;;;;;;;;12.00;12.00;;;;;;;;5108956;27;45733;-65
2022/08/26 10:41:38;;;;;;;;;9.00;9.00;;;;;;;;5113879;27;45429;-65
2022/08/26 10:44:06;;;;;;;;;10.00;8.00;;;;;;;;5118334;27;45381;-68
2022/08/26 10:46:41;;;;;;;;;11.00;10.00;;;;;;;;5126153;27;45538;-66
2022/08/26 10:49:12;;;;;;;;;9.00;9.00;;;;;;;;5120433;27;46201;-65
2022/08/26 10:51:41;;;;;;;;;4.33;4.00;;;;;;;;5123773;27;45323;-65
2022/08/26 10:54:19;;;;;;;;;10.00;10.00;;;;;;;;5121706;27;45216;-67
2022/08/26 10:56:50;;;;;;;;;8.00;8.00;;;;;;;;5120206;27;45407;-66
2022/08/26 10:59:18;;;;;;;;;10.33;10.33;;;;;;;;5114694;27;45495;-66
2022/08/26 11:02:02;;;;;;;;;5.00;5.00;;;;;;;;5122754;27;45544;-66
2022/08/26 11:04:34;;;;;;;;;6.67;6.67;;;;;;;;5119380;27;45751;-66
2022/08/26 11:07:18;;;;;;;;;6.00;6.00;;;;;;;;5126075;27;45334;-66
2022/08/26 11:09:44;;;;;;;;;6.67;6.67;;;;;;;;5118921;27;46107;-66
2022/08/26 11:12:28;;;;;;;;;9.67;8.33;;;;;;;;5110657;27;45349;-66
2022/08/26 11:14:53;;;;;;;;;38.75;34.25;;;;;;;;5116304;27;45369;-65
2022/08/26 11:17:39;;;;;;;;;8.00;8.00;;;;;;;;5113199;27;45363;-66
2022/08/26 11:20:04;;;;;;;;;7.00;5.67;;;;;;;;5117477;27;48043;-66
2022/08/26 11:22:34;;;;;;;;;9.67;9.67;;;;;;;;5117487;27;45212;-67
2022/08/26 11:25:01;;;;;;;;;6.33;6.33;;;;;;;;5116603;27;47529;-66
2022/08/26 11:27:35;;;;;;;;;7.67;7.67;;;;;;;;5118584;27;45430;-65
2022/08/26 11:30:00;;;;;;;;;4.67;4.67;;;;;;;;5114385;27;45462;-66
2022/08/26 11:32:44;;;;;;;;;5.00;5.00;;;;;;;;5118644;27;45431;-66
2022/08/26 11:35:15;;;;;;;;;6.00;6.00;;;;;;;;5115531;27;45334;-66
2022/08/26 11:37:40;;;;;;;;;6.67;5.33;;;;;;;;5114899;27;45629;-66
2022/08/26 11:40:08;;;;;;;;;6.00;6.00;;;;;;;;5118399;27;45321;-66
2022/08/26 11:42:41;;;;;;;;;3.00;3.00;;;;;;;;5124945;27;45280;-66
2022/08/26 11:45:16;;;;;;;;;8.33;7.67;;;;;;;;5115121;27;46049;-65
2022/08/26 11:47:42;;;;;;;;;5.00;5.00;;;;;;;;5107498;27;45460;-65
2022/08/26 11:50:07;;;;;;;;;5.00;5.00;;;;;;;;5114624;27;45240;-66
2022/08/26 11:52:32;;;;;;;;;6.00;4.67;;;;;;;;5117529;27;45352;-66
2022/08/26 11:54:58;;;;;;;;;9.67;9.00;;;;;;;;5119394;27;45270;-66
2022/08/26 11:57:23;;;;;;;;;6.67;6.67;;;;;;;;5121374;27;45323;-65
2022/08/26 11:59:48;;;;;;;;;6.33;5.00;;;;;;;;5117665;27;46491;-66
2022/08/26 12:02:15;;;;;;;;;8.00;7.00;;;;;;;;5117354;27;45298;-66
2022/08/26 12:04:42;;;;;;;;;6.00;6.00;;;;;;;;5115817;27;45563;-67
2022/08/26 12:07:08;;;;;;;;;8.33;7.33;;;;;;;;5121316;27;45326;-66
2022/08/26 12:09:35;;;;;;;;;8.00;8.00;;;;;;;;5115432;27;45537;-66
2022/08/26 12:12:09;;;;;;;;;7.33;7.33;;;;;;;;5121070;27;45355;-66
2022/08/26 12:14:34;;;;;;;;;5.33;5.33;;;;;;;;5118773;27;45255;-67
2022/08/26 12:17:10;;;;;;;;;6.67;6.67;;;;;;;;5122688;27;45295;-66
2022/08/26 12:19:36;;;;;;;;;3.33;3.33;;;;;;;;5112808;27;45356;-66
2022/08/26 12:22:13;;;;;;;;;9.67;8.00;;;;;;;;5112355;27;45155;-66
2022/08/26 12:24:47;;;;;;;;;5.00;5.00;;;;;;;;5114938;27;45402;-66
2022/08/26 12:27:35;;;;;;;;;4.67;4.67;;;;;;;;5115358;27;45404;-66
2022/08/26 12:30:03;;;;;;;;;5.67;5.67;;;;;;;;5105630;27;45781;-65
2022/08/26 12:32:30;;;;;;;;;5.67;5.67;;;;;;;;5117559;27;45309;-65
2022/08/26 12:34:56;;;;;;;;;7.33;5.00;;;;;;;;5115504;27;45483;-66
2022/08/26 12:37:21;;;;;;;;;6.00;5.00;;;;;;;;5120812;27;45560;-66
2022/08/26 12:39:47;;;;;;;;;6.33;5.67;;;;;;;;5113197;27;45390;-66
2022/08/26 12:42:14;;;;;;;;;5.00;5.00;;;;;;;;5120255;27;45216;-66
2022/08/26 12:44:45;;;;;;;;;6.67;5.67;;;;;;;;5111617;27;45318;-66
2022/08/26 12:47:29;;;;;;;;;5.67;5.67;;;;;;;;5119919;27;45244;-66
2022/08/26 12:49:59;;;;;;;;;6.67;6.33;;;;;;;;5114021;27;45413;-66
2022/08/26 12:52:29;;;;;;;;;7.33;7.33;;;;;;;;5119576;27;45397;-66
2022/08/26 12:55:05;;;;;;;;;5.33;5.00;;;;;;;;5117149;27;45391;-66
2022/08/26 12:57:35;;;;;;;;;5.00;5.00;;;;;;;;5123956;27;45266;-66
2022/08/26 13:00:19;;;;;;;;;6.33;5.00;;;;;;;;5117759;27;45575;-66
2022/08/26 13:02:45;;;;;;;;;5.00;5.00;;;;;;;;5116152;27;45400;-67
2022/08/26 13:05:18;;;;;;;;;8.00;6.67;;;;;;;;5117874;27;45358;-66
2022/08/26 13:08:03;;;;;;;;;3.33;3.33;;;;;;;;5121473;27;45293;-66
2022/08/26 13:10:33;;;;;;;;;4.00;3.00;;;;;;;;5116491;27;45956;-66
2022/08/26 13:12:59;;;;;;;;;4.33;4.00;;;;;;;;5122612;27;45932;-66
2022/08/26 13:15:25;;;;;;;;;5.00;4.33;;;;;;;;5117406;27;45241;-66
2022/08/26 13:17:50;;;;;;;;;5.33;4.00;;;;;;;;5108468;27;45365;-66
2022/08/26 13:20:15;;;;;;;;;7.00;7.00;;;;;;;;5118260;27;46427;-66
2022/08/26 13:22:41;;;;;;;;;3.67;3.67;;;;;;;;5115205;27;45250;-66
2022/08/26 13:25:06;;;;;;;;;5.00;5.00;;;;;;;;5117616;27;45320;-66
2022/08/26 13:27:31;;;;;;;;;4.67;4.67;;;;;;;;5116670;27;45410;-67
2022/08/26 13:29:57;;;;;;;;;4.67;4.00;;;;;;;;5114584;27;46193;-66
2022/08/26 13:32:23;;;;;;;;;3.67;3.67;;;;;;;;5114666;27;45517;-65
2022/08/26 13:34:49;;;;;;;;;5.00;5.00;;;;;;;;5113551;27;45385;-65
2022/08/26 13:37:14;;;;;;;;;7.33;7.33;;;;;;;;5116629;27;45578;-65
2022/08/26 13:39:40;;;;;;;;;5.67;5.67;;;;;;;;5114694;27;46292;-65
2022/08/26 13:42:06;;;;;;;;;10.00;9.50;;;;;;;;5120745;27;45381;-66
2022/08/26 13:44:31;;;;;;;;;7.33;7.33;;;;;;;;5117305;27;45369;-65
2022/08/26 13:46:56;;;;;;;;;8.67;8.00;;;;;;;;5119779;27;45416;-65
2022/08/26 13:49:21;;;;;;;;;4.67;4.67;;;;;;;;5115946;27;45576;-66
2022/08/26 13:51:46;;;;;;;;;4.00;4.00;;;;;;;;5118059;27;45467;-65
2022/08/26 13:54:12;;;;;;;;;6.67;6.00;;;;;;;;5109964;27;45426;-66
2022/08/26 13:56:37;;;;;;;;;4.67;4.67;;;;;;;;5120228;27;45385;-66
2022/08/26 13:59:02;;;;;;;;;6.33;6.33;;;;;;;;5118194;27;46608;-65
2022/08/26 14:01:28;;;;;;;;;4.00;4.00;;;;;;;;5118327;27;45352;-65
2022/08/26 14:03:54;;;;;;;;;7.00;6.00;;;;;;;;5119925;27;45524;-65
2022/08/26 14:06:19;;;;;;;;;5.00;5.00;;;;;;;;5112910;27;45381;-66
2022/08/26 14:08:45;;;;;;;;;6.00;6.00;;;;;;;;5106687;27;46895;-65
2022/08/26 14:11:10;;;;;;;;;7.00;5.33;;;;;;;;5110715;27;45420;-66
2022/08/26 14:13:35;;;;;;;;;6.00;5.00;;;;;;;;5108167;27;45396;-67
2022/08/26 14:16:03;;;;;;;;;6.67;5.00;;;;;;;;5113907;27;45540;-66
2022/08/26 14:18:32;;;;;;;;;7.67;7.67;;;;;;;;5108192;27;45328;-66
2022/08/26 14:20:58;;;;;;;;;8.00;8.00;;;;;;;;5121397;27;45382;-66
2022/08/26 14:23:23;;;;;;;;;4.33;4.33;;;;;;;;5112295;27;45370;-66
2022/08/26 14:25:49;;;;;;;;;5.00;5.00;;;;;;;;5112738;27;45339;-66
2022/08/26 14:28:14;;;;;;;;;3.33;3.33;;;;;;;;5115787;27;45414;-66
2022/08/26 14:30:41;;;;;;;;;4.00;4.00;;;;;;;;5116408;27;45354;-66
2022/08/26 14:33:09;;;;;;;;;4.67;4.67;;;;;;;;5120279;27;45379;-67
2022/08/26 14:35:34;;;;;;;;;5.33;5.33;;;;;;;;5115337;27;45464;-67